createdAt,value
2023-03-05T00:01:35.605Z,5.40
2023-03-05T00:04:05.512Z,5.40
2023-03-05T00:06:33.471Z,5.40
2023-03-05T00:09:00.725Z,5.40
2023-03-05T00:11:30.448Z,5.30
2023-03-05T00:13:58.391Z,5.30
2023-03-05T00:16:27.949Z,5.30
2023-03-05T00:18:59.536Z,5.30
2023-03-05T00:21:38.561Z,5.30
2023-03-05T00:24:15.274Z,5.30
2023-03-05T00:26:42.236Z,5.20
2023-03-05T00:29:11.103Z,5.20
2023-03-05T00:31:38.532Z,5.20
2023-03-05T00:34:09.446Z,5.30
2023-03-05T00:36:40.666Z,5.30
2023-03-05T00:39:07.882Z,5.20
2023-03-05T00:41:34.771Z,5.20
2023-03-05T00:44:01.735Z,5.30
2023-03-05T00:46:29.061Z,5.30
2023-03-05T00:48:56.712Z,5.30
2023-03-05T00:51:24.872Z,5.30
2023-03-05T00:53:52.093Z,5.30
2023-03-05T00:56:19.185Z,5.30
2023-03-05T00:58:46.341Z,5.30
2023-03-05T01:01:13.747Z,5.30
2023-03-05T01:03:41.183Z,5.30
2023-03-05T01:06:11.229Z,5.30
2023-03-05T01:08:38.645Z,5.30
2023-03-05T01:11:07.159Z,5.20
2023-03-05T01:13:34.323Z,5.20
2023-03-05T01:16:01.893Z,5.20
2023-03-05T01:18:28.974Z,5.20
2023-03-05T01:20:55.905Z,5.20
2023-03-05T01:23:22.926Z,5.30
2023-03-05T01:25:54.999Z,5.20
2023-03-05T01:28:21.838Z,5.20
2023-03-05T01:30:48.611Z,5.20
2023-03-05T01:33:15.883Z,5.30
2023-03-05T01:35:42.856Z,5.20
2023-03-05T01:38:09.906Z,5.20
2023-03-05T01:40:36.994Z,5.20
2023-03-05T01:43:12.601Z,5.10
2023-03-05T01:46:00.863Z,5.20
2023-03-05T01:48:28.106Z,5.20
2023-03-05T01:50:55.173Z,5.20
2023-03-05T01:53:22.007Z,5.10
2023-03-05T01:55:48.998Z,5.10
2023-03-05T01:58:15.886Z,5.10
2023-03-05T02:00:51.282Z,5.10
2023-03-05T02:03:19.862Z,5.10
2023-03-05T02:05:46.601Z,5.10
2023-03-05T02:08:16.904Z,5.10
2023-03-05T02:10:46.802Z,5.10
2023-03-05T02:13:25.517Z,5.10
2023-03-05T02:15:54.544Z,5.10
2023-03-05T02:18:21.915Z,5.10
2023-03-05T02:20:57.958Z,5.10
2023-03-05T02:23:27.361Z,5.10
2023-03-05T02:25:54.538Z,5.00
2023-03-05T02:28:45.640Z,5.00
2023-03-05T02:31:18.833Z,5.00
2023-03-05T02:33:46.874Z,5.00
2023-03-05T02:36:13.845Z,5.00
2023-03-05T02:38:42.170Z,5.10
2023-03-05T02:41:09.007Z,5.10
2023-03-05T02:43:36.090Z,5.10
2023-03-05T02:46:03.262Z,5.10
2023-03-05T02:48:30.336Z,5.10
2023-03-05T02:50:57.985Z,5.10
2023-03-05T02:53:26.382Z,5.10
2023-03-05T02:55:53.576Z,5.10
2023-03-05T02:58:20.839Z,5.10
2023-03-05T03:00:47.970Z,5.10
2023-03-05T03:03:15.416Z,5.10
2023-03-05T03:05:42.440Z,5.10
2023-03-05T03:08:10.681Z,5.10
2023-03-05T03:10:37.617Z,5.10
2023-03-05T03:13:04.473Z,5.10
2023-03-05T03:15:31.243Z,5.10
2023-03-05T03:17:58.117Z,5.10
2023-03-05T03:20:25.064Z,5.00
2023-03-05T03:22:52.037Z,5.00
2023-03-05T03:25:21.400Z,5.00
2023-03-05T03:27:48.303Z,4.90
2023-03-05T03:30:15.970Z,4.90
2023-03-05T03:32:43.565Z,5.00
2023-03-05T03:35:11.345Z,4.90
2023-03-05T03:37:38.137Z,4.90
2023-03-05T03:40:06.156Z,4.90
2023-03-05T03:42:33.503Z,4.90
2023-03-05T03:45:02.313Z,4.90
2023-03-05T03:47:30.746Z,4.90
2023-03-05T03:49:59.094Z,4.90
2023-03-05T03:52:26.748Z,4.80
2023-03-05T03:54:55.840Z,4.80
2023-03-05T03:57:22.896Z,4.80
2023-03-05T03:59:50.492Z,4.80
2023-03-05T04:02:17.861Z,4.80
2023-03-05T04:04:44.786Z,4.80
2023-03-05T04:07:11.775Z,4.90
2023-03-05T04:09:39.030Z,4.80
2023-03-05T04:12:06.113Z,4.80
2023-03-05T04:14:33.050Z,4.80
2023-03-05T04:17:00.266Z,4.80
2023-03-05T04:19:28.465Z,4.70
2023-03-05T04:21:55.266Z,4.70
2023-03-05T04:24:22.299Z,4.70
2023-03-05T04:26:49.260Z,4.70
2023-03-05T04:29:16.044Z,4.70
2023-03-05T04:31:42.880Z,4.60
2023-03-05T04:34:09.796Z,4.60
2023-03-05T04:36:37.152Z,4.60
2023-03-05T04:39:04.915Z,4.60
2023-03-05T04:41:31.911Z,4.60
2023-03-05T04:43:58.692Z,4.60
2023-03-05T04:46:25.511Z,4.60
2023-03-05T04:48:52.402Z,4.50
2023-03-05T04:51:19.130Z,4.50
2023-03-05T04:53:46.156Z,4.50
2023-03-05T04:56:13.211Z,4.40
2023-03-05T04:58:40.258Z,4.40
2023-03-05T05:01:07.670Z,4.40
2023-03-05T05:03:34.944Z,4.30
2023-03-05T05:06:02.178Z,4.30
2023-03-05T05:08:29.627Z,4.30
2023-03-05T05:11:08.042Z,4.30
2023-03-05T05:13:35.551Z,4.40
2023-03-05T05:16:02.725Z,4.40
2023-03-05T05:18:29.764Z,4.40
2023-03-05T05:20:57.102Z,4.30
2023-03-05T05:23:24.261Z,4.40
2023-03-05T05:26:01.816Z,4.40
2023-03-05T05:28:29.428Z,4.30
2023-03-05T05:30:56.967Z,4.40
2023-03-05T05:33:24.418Z,4.30
2023-03-05T05:35:51.765Z,4.20
2023-03-05T05:38:18.969Z,4.20
2023-03-05T05:40:45.900Z,4.20
2023-03-05T05:43:12.744Z,4.20
2023-03-05T05:45:40.238Z,4.30
2023-03-05T05:48:07.501Z,4.30
2023-03-05T05:50:34.334Z,4.30
2023-03-05T05:53:01.448Z,4.30
2023-03-05T05:55:28.382Z,4.30
2023-03-05T05:57:55.259Z,4.20
2023-03-05T06:00:23.025Z,4.20
2023-03-05T06:02:49.956Z,4.20
2023-03-05T06:05:16.919Z,4.20
2023-03-05T06:07:44.672Z,4.20
2023-03-05T06:10:12.313Z,4.30
2023-03-05T06:12:39.152Z,4.20
2023-03-05T06:15:06.543Z,4.30
2023-03-05T06:17:33.456Z,4.20
2023-03-05T06:20:01.172Z,4.20
2023-03-05T06:22:28.512Z,4.20
2023-03-05T06:24:55.585Z,4.20
2023-03-05T06:27:22.551Z,4.10
2023-03-05T06:29:53.222Z,4.20
2023-03-05T06:32:20.688Z,4.10
2023-03-05T06:34:47.573Z,4.10
2023-03-05T06:37:14.775Z,4.10
2023-03-05T06:39:41.950Z,4.10
2023-03-05T06:42:08.859Z,4.10
2023-03-05T06:44:38.550Z,4.10
2023-03-05T06:47:06.566Z,4.10
2023-03-05T06:49:34.061Z,4.10
2023-03-05T06:52:04.628Z,4.10
2023-03-05T06:54:31.589Z,4.10
2023-03-05T06:56:58.621Z,4.10
2023-03-05T06:59:25.621Z,4.20
2023-03-05T07:01:52.505Z,4.20
2023-03-05T07:04:19.472Z,4.20
2023-03-05T07:06:46.473Z,4.20
2023-03-05T07:09:16.990Z,4.30
2023-03-05T07:11:44.314Z,4.40
2023-03-05T07:14:11.359Z,4.40
2023-03-05T07:16:38.258Z,4.30
2023-03-05T07:19:07.444Z,4.40
2023-03-05T07:21:36.973Z,4.40
2023-03-05T07:24:06.596Z,4.40
2023-03-05T07:26:33.631Z,4.40
2023-03-05T07:29:01.676Z,4.40
2023-03-05T07:31:31.748Z,4.50
2023-03-05T07:34:00.306Z,4.50
2023-03-05T07:36:27.861Z,4.60
2023-03-05T07:38:54.771Z,4.70
2023-03-05T07:41:23.697Z,4.70
2023-03-05T07:43:53.668Z,4.70
2023-03-05T07:46:23.866Z,4.70
2023-03-05T07:48:51.083Z,4.70
2023-03-05T07:51:20.200Z,4.70
2023-03-05T07:53:49.673Z,4.80
2023-03-05T07:56:31.600Z,4.80
2023-03-05T07:59:05.280Z,4.80
2023-03-05T08:01:33.110Z,4.90
2023-03-05T08:04:00.125Z,4.80
2023-03-05T08:06:27.023Z,4.80
2023-03-05T08:08:53.809Z,4.80
2023-03-05T08:11:20.766Z,4.80
2023-03-05T08:13:47.669Z,4.90
2023-03-05T08:16:18.316Z,4.90
2023-03-05T08:18:45.763Z,4.80
2023-03-05T08:21:29.997Z,4.90
2023-03-05T08:23:58.007Z,4.90
2023-03-05T08:26:27.109Z,5.00
2023-03-05T08:28:54.286Z,4.90
2023-03-05T08:31:23.148Z,5.00
2023-03-05T08:33:52.768Z,5.00
2023-03-05T08:36:20.310Z,5.00
2023-03-05T08:38:48.615Z,5.00
2023-03-05T08:41:17.214Z,5.10
2023-03-05T08:43:44.248Z,5.10
2023-03-05T08:46:14.973Z,5.10
2023-03-05T08:48:42.260Z,5.20
2023-03-05T08:51:13.675Z,5.20
2023-03-05T08:53:41.002Z,5.20
2023-03-05T09:16:41.706Z,5.50
2023-03-05T09:19:10.731Z,5.50
2023-03-05T09:21:37.507Z,5.50
2023-03-05T09:24:04.763Z,5.40
2023-03-05T09:26:31.785Z,5.40
2023-03-05T09:28:58.632Z,5.50
2023-03-05T09:31:25.648Z,5.40
2023-03-05T09:33:52.707Z,5.50
2023-03-05T09:36:22.954Z,5.50
2023-03-05T09:38:51.065Z,5.40
2023-03-05T09:41:27.224Z,5.40
2023-03-05T09:44:23.742Z,5.40
2023-03-05T09:47:05.729Z,5.60
2023-03-05T09:49:32.447Z,5.60
2023-03-05T09:52:11.778Z,5.60
2023-03-05T09:54:48.083Z,5.70
2023-03-05T09:57:24.125Z,5.60
2023-03-05T09:59:54.432Z,5.70
2023-03-05T10:02:32.478Z,5.70
2023-03-05T10:05:08.203Z,5.80
2023-03-05T10:07:39.950Z,5.80
2023-03-05T10:10:17.953Z,5.90
2023-03-05T10:12:48.417Z,6.00
2023-03-05T10:15:26.794Z,6.10
2023-03-05T10:18:00.090Z,6.20
2023-03-05T10:20:44.970Z,6.20
2023-03-05T10:23:33.688Z,6.20
2023-03-05T10:26:07.102Z,6.10
2023-03-05T10:28:42.648Z,6.00
2023-03-05T10:31:51.239Z,6.10
2023-03-05T10:34:51.579Z,6.20
2023-03-05T10:37:33.022Z,6.30
2023-03-05T10:40:11.598Z,6.30
2023-03-05T10:42:50.228Z,6.20
2023-03-05T10:45:35.879Z,6.10
2023-03-05T10:48:27.645Z,6.20
2023-03-05T10:51:01.723Z,6.20
2023-03-05T10:53:35.184Z,6.20
2023-03-05T10:56:04.071Z,6.10
2023-03-05T10:58:31.614Z,6.10
2023-03-05T11:01:18.322Z,6.00
2023-03-05T11:03:47.715Z,5.70
2023-03-05T11:06:15.104Z,5.50
2023-03-05T11:08:42.336Z,5.70
2023-03-05T11:11:21.126Z,5.70
2023-03-05T11:13:55.812Z,5.80
2023-03-05T11:16:24.895Z,5.90
2023-03-05T11:19:14.109Z,5.70
2023-03-05T11:21:42.331Z,5.90
2023-03-05T11:24:13.904Z,6.00
2023-03-05T11:26:50.057Z,5.90
2023-03-05T11:29:25.934Z,5.80
2023-03-05T11:31:54.249Z,5.80
2023-03-05T11:34:21.052Z,5.80
2023-03-05T11:36:53.597Z,5.80
2023-03-05T11:39:22.999Z,5.70
2023-03-05T11:42:05.716Z,5.90
2023-03-05T11:44:35.693Z,6.00
2023-03-05T11:47:17.652Z,6.00
2023-03-05T11:49:47.855Z,5.90
2023-03-05T11:52:58.094Z,5.90
2023-03-05T12:24:25.477Z,6.70
2023-03-05T12:30:38.601Z,6.70
2023-03-05T12:33:08.101Z,6.90
2023-03-05T12:35:39.815Z,6.70
2023-03-05T12:38:47.754Z,6.70
2023-03-05T12:45:11.897Z,6.50
2023-03-05T12:47:48.674Z,6.60
2023-03-05T12:50:27.571Z,6.70
2023-03-05T12:53:18.546Z,6.70
2023-03-05T12:55:48.090Z,6.60
2023-03-05T12:58:30.105Z,6.60
2023-03-05T13:01:11.801Z,6.50
2023-03-05T13:03:54.504Z,6.50
2023-03-05T13:06:42.718Z,6.40
2023-03-05T13:09:24.351Z,6.50
2023-03-05T13:11:54.102Z,6.50
2023-03-05T13:14:23.673Z,6.50
2023-03-05T13:16:50.675Z,6.50
2023-03-05T13:19:18.005Z,6.40
2023-03-05T13:21:45.109Z,6.50
2023-03-05T13:36:33.209Z,7.20
2023-03-05T13:39:00.812Z,7.20
2023-03-05T13:41:28.318Z,7.20
2023-03-05T13:43:58.896Z,7.40
2023-03-05T13:46:40.411Z,7.30
2023-03-05T13:49:25.389Z,7.40
2023-03-05T13:51:54.994Z,7.30
2023-03-05T13:54:24.029Z,7.20
2023-03-05T13:56:58.801Z,7.20
2023-03-05T13:59:31.145Z,7.00
2023-03-05T14:01:59.688Z,7.00
2023-03-05T14:04:29.678Z,6.80
2023-03-05T14:07:24.799Z,6.80
2023-03-05T14:09:52.505Z,6.80
2023-03-05T14:12:23.352Z,6.90
2023-03-05T14:14:50.721Z,7.00
2023-03-05T14:17:30.613Z,6.90
2023-03-05T14:20:19.161Z,6.80
2023-03-05T14:22:50.612Z,6.70
2023-03-05T14:25:37.675Z,6.70
2023-03-05T14:28:05.989Z,6.70
2023-03-05T14:30:36.057Z,6.80
2023-03-05T14:33:04.328Z,6.80
2023-03-05T14:35:31.204Z,6.70
2023-03-05T14:37:59.782Z,6.70
2023-03-05T14:40:37.113Z,6.60
2023-03-05T14:43:05.664Z,6.50
2023-03-05T14:45:40.928Z,6.40
2023-03-05T14:48:08.524Z,6.40
2023-03-05T14:50:44.827Z,6.40
2023-03-05T14:53:17.726Z,6.40
2023-03-05T14:55:49.474Z,6.50
2023-03-05T14:58:20.322Z,6.40
2023-03-05T15:00:50.106Z,6.40
2023-03-05T15:03:18.797Z,6.30
2023-03-05T15:05:48.427Z,6.30
2023-03-05T15:08:20.421Z,6.30
2023-03-05T15:10:47.524Z,6.20
2023-03-05T15:13:16.312Z,6.20
2023-03-05T15:15:44.276Z,6.10
2023-03-05T15:18:14.357Z,6.00
2023-03-05T15:20:41.306Z,6.00
2023-03-05T15:23:08.064Z,6.00
2023-03-05T15:25:35.025Z,6.00
2023-03-05T15:28:02.141Z,6.10
2023-03-05T15:30:33.523Z,6.10
2023-03-05T15:33:06.720Z,6.10
2023-03-05T15:35:33.908Z,6.10
2023-03-05T15:38:01.275Z,6.10
2023-03-05T15:40:29.597Z,6.10
2023-03-05T15:42:58.391Z,6.10
2023-03-05T15:45:25.615Z,6.10
2023-03-05T15:47:53.757Z,6.10
2023-03-05T15:50:21.790Z,6.10
2023-03-05T15:52:49.155Z,6.10
2023-03-05T15:55:16.186Z,6.00
2023-03-05T15:57:45.518Z,6.00
2023-03-05T16:00:14.187Z,6.00
2023-03-05T16:02:41.125Z,6.00
2023-03-05T16:05:09.033Z,6.00
2023-03-05T16:07:39.787Z,5.90
2023-03-05T16:10:08.033Z,5.90
2023-03-05T16:12:41.084Z,5.90
2023-03-05T16:15:13.572Z,5.90
2023-03-05T16:17:44.022Z,5.80
2023-03-05T16:20:12.650Z,5.90
2023-03-05T16:22:39.808Z,5.80
2023-03-05T16:25:07.289Z,5.80
2023-03-05T16:27:34.708Z,5.90
2023-03-05T18:43:17.211Z,5.10
2023-03-05T18:45:45.944Z,5.10
2023-03-05T18:48:12.762Z,5.10
2023-03-05T18:50:40.179Z,5.10
2023-03-05T18:53:07.212Z,5.10
2023-03-05T18:55:34.299Z,5.00
2023-03-05T18:58:02.962Z,5.00
2023-03-05T19:00:31.624Z,5.10
2023-03-05T19:02:58.813Z,5.00
2023-03-05T19:05:26.725Z,5.00
2023-03-05T19:07:54.082Z,5.00
2023-03-05T19:10:22.710Z,4.90
2023-03-05T19:12:56.879Z,4.90
2023-03-05T19:15:24.049Z,5.00
2023-03-05T19:17:51.881Z,5.00
2023-03-05T19:20:18.782Z,5.00
2023-03-05T19:22:45.629Z,5.00
2023-03-05T19:25:12.787Z,4.90
2023-03-05T19:27:39.884Z,4.90
2023-03-05T19:30:07.392Z,4.90
2023-03-05T19:32:34.710Z,4.90
2023-03-05T19:35:01.984Z,5.00
2023-03-05T19:37:28.873Z,4.90
2023-03-05T19:39:55.579Z,4.90
2023-03-05T19:42:22.704Z,4.90
2023-03-05T19:44:49.854Z,4.90
2023-03-05T19:47:16.964Z,4.90
2023-03-05T19:49:43.983Z,4.90
2023-03-05T19:52:11.102Z,4.90
2023-03-05T19:54:37.814Z,4.90
2023-03-05T19:57:04.603Z,5.00
2023-03-05T19:59:31.532Z,5.00
2023-03-05T20:01:58.396Z,5.10
2023-03-05T20:04:25.265Z,5.00
2023-03-05T20:06:52.329Z,5.10
2023-03-05T20:09:19.486Z,5.00
2023-03-05T20:11:47.223Z,5.00
2023-03-05T20:14:14.722Z,5.10
2023-03-05T20:16:43.464Z,5.00
2023-03-05T20:19:16.203Z,5.00
2023-03-05T20:21:44.137Z,5.00
2023-03-05T20:24:13.775Z,5.00
2023-03-05T20:26:42.730Z,5.00
2023-03-05T20:29:10.124Z,5.00
2023-03-05T20:31:37.639Z,5.00
2023-03-05T20:34:10.198Z,5.00
2023-03-05T20:36:37.786Z,5.00
2023-03-05T20:39:05.626Z,4.90
2023-03-05T20:41:34.302Z,4.90
2023-03-05T20:44:03.355Z,4.70
2023-03-05T20:46:32.903Z,4.70
2023-03-05T20:49:02.432Z,4.60
2023-03-05T20:51:35.921Z,4.60
2023-03-05T20:54:08.973Z,4.60
2023-03-05T20:56:36.365Z,4.50
2023-03-05T20:59:06.256Z,4.50
2023-03-05T21:01:35.184Z,4.50
2023-03-05T21:04:02.544Z,4.50
2023-03-05T21:06:31.794Z,4.40
2023-03-05T21:08:59.914Z,4.50
2023-03-05T21:11:27.351Z,4.40
2023-03-05T21:13:54.301Z,4.40
2023-03-05T21:16:24.058Z,4.40
2023-03-05T21:18:52.068Z,4.40
2023-03-05T21:21:19.292Z,4.40
2023-03-05T21:23:47.240Z,4.40
2023-03-05T21:26:14.892Z,4.40
2023-03-05T21:28:41.967Z,4.30
2023-03-05T21:31:14.505Z,4.30
2023-03-05T21:33:42.309Z,4.40
2023-03-05T21:36:09.567Z,4.30
2023-03-05T21:38:36.648Z,4.20
2023-03-05T21:41:04.861Z,4.30
2023-03-05T21:43:32.168Z,4.20
2023-03-05T21:46:01.504Z,4.20
2023-03-05T21:48:28.829Z,4.20
2023-03-05T21:50:55.849Z,4.20
2023-03-05T21:53:23.148Z,4.20
2023-03-05T21:56:03.699Z,4.20
2023-03-05T21:58:32.393Z,4.20
2023-03-05T22:00:59.885Z,4.10
2023-03-05T22:03:27.357Z,4.20
2023-03-05T22:05:54.713Z,4.20
2023-03-05T22:08:22.689Z,4.20
2023-03-05T22:10:49.888Z,4.10
2023-03-05T22:13:17.968Z,4.20
2023-03-05T22:15:53.823Z,4.10
2023-03-05T22:18:23.432Z,4.10
2023-03-05T22:20:50.462Z,4.00
2023-03-05T22:23:17.586Z,4.00
2023-03-05T22:25:44.588Z,4.00
2023-03-05T22:28:12.851Z,4.10
2023-03-05T22:30:45.055Z,4.20
2023-03-05T22:33:12.566Z,4.20
2023-03-05T22:35:42.951Z,4.20
2023-03-05T22:38:10.665Z,4.20
2023-03-05T22:40:41.589Z,4.20
2023-03-05T22:43:08.594Z,4.20
2023-03-05T22:45:35.407Z,4.30
2023-03-05T22:48:02.530Z,4.30
2023-03-05T22:50:29.582Z,4.20
2023-03-05T22:52:56.584Z,4.30
2023-03-05T22:55:23.387Z,4.30
2023-03-05T22:57:50.267Z,4.20
2023-03-05T23:00:24.193Z,4.20
2023-03-05T23:02:51.487Z,4.20
2023-03-05T23:05:18.891Z,4.20
2023-03-05T23:07:46.024Z,4.20
2023-03-05T23:10:17.424Z,4.20
2023-03-05T23:12:49.416Z,4.20
2023-03-05T23:15:23.978Z,4.20
2023-03-05T23:17:51.026Z,4.20
2023-03-05T23:20:20.899Z,4.30
2023-03-05T23:22:48.570Z,4.20
2023-03-05T23:25:16.645Z,4.30
2023-03-05T23:27:43.768Z,4.30
2023-03-05T23:30:16.589Z,4.30
2023-03-05T23:32:45.554Z,4.30
2023-03-05T23:35:14.583Z,4.40
2023-03-05T23:37:41.591Z,4.40
2023-03-05T23:40:12.690Z,4.50
2023-03-05T23:42:39.561Z,4.40
2023-03-05T23:45:07.789Z,4.50
2023-03-05T23:47:36.185Z,4.50
2023-03-05T23:50:07.987Z,4.50
2023-03-05T23:52:35.098Z,4.50
